Time;durP1;ratioP1;P1;durP2;ratioP2;P2;SDS_P1;SDS_P2;PMS_P1;PMS_P2;Temp;Humidity;BMP_temperature;BMP_pressure;BME280_temperature;BME280_humidity;BME280_pressure;Samples;Min_cycle;Max_cycle;Signal;HPM_P1;HPM_P2
2022/12/31 00:05:37;;;;;;;12.18;9.98;;;10.20;99.90;;;;;;2066749;68;22056;-92
2022/12/31 00:08:29;;;;;;;11.03;9.68;;;10.60;99.90;;;;;;2014608;70;21096;-90
2022/12/31 00:11:23;;;;;;;10.95;9.48;;;10.40;99.90;;;;;;2029725;70;21033;-91
2022/12/31 00:14:19;;;;;;;13.38;9.18;;;10.40;99.90;;;;;;2026517;70;21039;-91
2022/12/31 00:17:10;;;;;;;11.45;9.25;;;10.30;99.90;;;;;;2013236;70;21057;-91
2022/12/31 00:24:18;;;;;;;10.68;8.73;;;10.30;99.90;;;;;;1989303;71;22132;-89
2022/12/31 00:27:11;;;;;;;11.28;8.88;;;10.20;99.90;;;;;;1953489;73;21133;-91
2022/12/31 00:30:03;;;;;;;11.83;9.03;;;10.20;99.90;;;;;;2027103;70;21134;-91
2022/12/31 00:35:46;;;;;;;10.93;8.65;;;10.20;99.90;;;;;;1947148;72;22376;-90
2022/12/31 00:38:40;;;;;;;10.48;8.80;;;10.10;99.90;;;;;;1905485;75;21172;-89
2022/12/31 00:41:31;;;;;;;11.43;9.30;;;10.10;99.90;;;;;;1905384;75;21040;-90
2022/12/31 00:44:23;;;;;;;10.13;8.75;;;10.10;99.90;;;;;;1911056;74;21164;-90
2022/12/31 00:47:14;;;;;;;10.70;8.75;;;10.20;99.90;;;;;;1905185;75;21192;-90
2022/12/31 00:50:07;;;;;;;14.53;9.33;;;10.20;99.90;;;;;;1918960;74;21110;-92
2022/12/31 01:09:21;;;;;;;9.50;7.55;;;10.00;99.90;;;;;;1950898;72;22183;-90
2022/12/31 01:12:12;;;;;;;8.73;7.80;;;10.10;99.90;;;;;;1920301;75;21080;-90
2022/12/31 01:18:30;;;;;;;7.45;6.30;;;10.10;99.90;;;;;;1941287;74;22184;-92
2022/12/31 01:21:23;;;;;;;7.47;6.42;;;10.20;99.90;;;;;;1890079;75;21129;-93
2022/12/31 01:27:35;;;;;;;8.58;6.65;;;10.20;99.90;;;;;;1978201;71;22611;-90
2022/12/31 01:30:27;;;;;;;8.25;6.50;;;10.20;99.90;;;;;;1962920;72;21132;-90
2022/12/31 01:33:18;;;;;;;7.95;6.92;;;10.20;99.90;;;;;;2032417;70;21082;-89
2022/12/31 01:36:14;;;;;;;9.33;7.40;;;10.20;99.90;;;;;;2038394;69;21192;-91
2022/12/31 01:41:49;;;;;;;10.00;7.17;;;10.20;99.90;;;;;;2039176;69;22119;-90
2022/12/31 01:44:54;;;;;;;9.23;7.65;;;10.30;99.90;;;;;;2024268;70;21088;-92
2022/12/31 01:47:48;;;;;;;10.32;7.78;;;10.30;99.90;;;;;;2020053;70;21061;-91
2022/12/31 01:50:41;;;;;;;9.13;7.72;;;10.30;99.90;;;;;;2008658;71;21034;-92
2022/12/31 01:56:49;;;;;;;8.08;7.12;;;10.30;99.90;;;;;;1979894;71;22314;-92
2022/12/31 01:59:42;;;;;;;9.00;7.00;;;10.30;99.90;;;;;;1919840;75;21113;-91
2022/12/31 02:02:40;;;;;;;8.38;6.97;;;10.30;99.90;;;;;;2006552;70;21547;-91
2022/12/31 02:08:14;;;;;;;7.87;6.65;;;10.40;99.90;;;;;;1942240;72;22220;-89
2022/12/31 02:11:27;;;;;;;9.28;7.40;;;10.40;99.90;;;;;;1908642;75;21143;-93
2022/12/31 02:17:00;;;;;;;10.28;7.35;;;10.30;99.90;;;;;;1956109;72;22204;-92
2022/12/31 02:24:57;;;;;;;9.00;7.17;;;10.40;99.90;;;;;;2060716;68;22083;-93
2022/12/31 02:27:55;;;;;;;7.97;7.17;;;10.40;99.90;;;;;;2007828;70;21062;-91
2022/12/31 02:30:50;;;;;;;8.25;6.97;;;10.40;99.90;;;;;;2025997;70;21096;-92
2022/12/31 02:33:44;;;;;;;9.20;7.15;;;10.30;99.90;;;;;;2024619;70;21054;-90
2022/12/31 02:36:38;;;;;;;8.50;6.97;;;10.30;99.90;;;;;;2014412;70;21115;-92
2022/12/31 02:39:32;;;;;;;9.10;6.87;;;10.30;99.90;;;;;;2018878;70;21079;-92
2022/12/31 02:42:23;;;;;;;10.05;7.72;;;10.30;99.90;;;;;;2021104;70;21078;-91
2022/12/31 02:45:17;;;;;;;9.75;7.58;;;10.30;99.90;;;;;;2001620;70;21078;-91
2022/12/31 02:48:31;;;;;;;8.43;6.85;;;10.20;99.90;;;;;;2002850;70;21163;-91
2022/12/31 02:51:31;;;;;;;10.20;8.00;;;10.20;99.90;;;;;;1998556;72;21065;-91
2022/12/31 02:54:31;;;;;;;9.03;7.40;;;10.20;99.90;;;;;;2024131;70;21054;-92
2022/12/31 02:57:26;;;;;;;8.98;7.75;;;10.10;99.90;;;;;;2034065;70;21097;-94
2022/12/31 03:03:29;;;;;;;9.38;8.15;;;10.20;99.90;;;;;;2034575;70;21115;-91
2022/12/31 03:09:15;;;;;;;11.30;7.67;;;10.10;99.90;;;;;;1954802;72;22153;-93
2022/12/31 03:15:21;;;;;;;9.53;8.13;;;10.10;99.90;;;;;;1915624;74;21129;-92
2022/12/31 03:18:15;;;;;;;9.38;7.40;;;10.10;99.90;;;;;;1917711;74;21118;-91
2022/12/31 03:30:43;;;;;;;9.10;7.90;;;10.00;99.90;;;;;;2057959;69;22154;-93
2022/12/31 03:51:53;;;;;;;7.33;6.12;;;9.90;99.90;;;;;;2073320;68;22167;-93
2022/12/31 03:54:45;;;;;;;7.83;7.03;;;9.90;99.90;;;;;;2035093;70;21131;-92
2022/12/31 03:57:37;;;;;;;8.83;7.10;;;9.90;99.90;;;;;;2064399;69;21063;-92
2022/12/31 04:00:28;;;;;;;8.18;7.20;;;9.90;99.90;;;;;;2070336;69;21125;-91
2022/12/31 04:03:20;;;;;;;8.25;7.35;;;10.00;99.90;;;;;;2068696;69;21078;-92
2022/12/31 04:06:12;;;;;;;9.35;7.58;;;9.90;99.90;;;;;;2032237;69;21106;-92
2022/12/31 04:09:03;;;;;;;9.20;6.75;;;9.90;99.90;;;;;;2032057;70;21815;-92
2022/12/31 04:11:55;;;;;;;8.98;7.30;;;9.90;99.90;;;;;;2041369;69;21136;-91
2022/12/31 04:14:47;;;;;;;8.63;6.53;;;9.90;99.90;;;;;;2049233;69;21034;-93
2022/12/31 04:17:38;;;;;;;8.25;6.85;;;9.90;99.90;;;;;;2036324;70;21176;-93
2022/12/31 04:20:30;;;;;;;9.40;7.65;;;9.80;99.90;;;;;;2059188;69;21124;-91
2022/12/31 04:23:22;;;;;;;8.30;7.25;;;9.90;99.90;;;;;;2037353;69;21074;-92
2022/12/31 04:26:13;;;;;;;9.40;7.62;;;9.90;99.90;;;;;;2032365;70;21134;-92
2022/12/31 04:29:05;;;;;;;8.13;7.33;;;9.90;99.90;;;;;;2043391;69;21110;-92
2022/12/31 04:31:57;;;;;;;9.28;7.87;;;9.80;99.90;;;;;;2065015;69;21168;-92
2022/12/31 04:34:49;;;;;;;9.00;7.50;;;9.80;99.90;;;;;;2044345;69;21089;-92
2022/12/31 04:37:40;;;;;;;8.95;7.60;;;9.90;99.90;;;;;;2063330;69;21074;-92
2022/12/31 04:41:15;;;;;;;7.75;6.72;;;9.90;99.90;;;;;;2045108;69;21057;-91
2022/12/31 04:43:28;;;;;;;8.35;7.08;;;9.90;99.90;;;;;;2037193;69;21087;-90
2022/12/31 04:49:02;;;;;;;8.38;7.20;;;9.90;99.90;;;;;;1949147;72;22245;-94
2022/12/31 04:51:53;;;;;;;8.63;7.30;;;9.90;99.90;;;;;;1904987;74;21102;-93
2022/12/31 04:54:45;;;;;;;6.60;5.92;;;9.90;99.90;;;;;;1905346;75;21114;-92
2022/12/31 05:00:55;;;;;;;8.48;7.15;;;10.00;99.90;;;;;;1923763;74;22204;-93
2022/12/31 05:03:47;;;;;;;7.97;6.40;;;10.00;99.90;;;;;;1884884;76;21081;-92
2022/12/31 05:12:29;;;;;;;7.95;6.47;;;9.90;99.90;;;;;;2015861;71;22166;-93
2022/12/31 05:15:20;;;;;;;8.05;6.97;;;9.80;99.90;;;;;;1957177;72;21151;-91
2022/12/31 05:18:12;;;;;;;7.70;6.80;;;9.70;99.90;;;;;;2031393;70;21114;-93
2022/12/31 05:21:04;;;;;;;8.15;7.12;;;9.70;99.90;;;;;;2030148;69;21552;-93
2022/12/31 05:56:49;;;;;;;8.63;7.22;;;9.60;99.90;;;;;;2062292;69;22127;-93
2022/12/31 05:59:42;;;;;;;7.97;6.53;;;9.60;99.90;;;;;;1984125;72;21188;-92
2022/12/31 06:02:36;;;;;;;7.67;6.85;;;9.50;99.90;;;;;;1987085;72;21467;-93
2022/12/31 06:05:28;;;;;;;6.75;6.05;;;9.50;99.90;;;;;;1981697;72;21140;-94
2022/12/31 06:08:20;;;;;;;6.85;6.12;;;9.50;99.90;;;;;;1985960;71;21167;-93
2022/12/31 06:11:11;;;;;;;8.15;6.42;;;9.50;99.90;;;;;;1981477;71;21062;-91
2022/12/31 06:14:03;;;;;;;8.48;6.72;;;9.50;99.90;;;;;;1981922;72;21130;-91
2022/12/31 06:16:55;;;;;;;6.65;5.95;;;9.50;99.90;;;;;;1987231;72;21086;-92
2022/12/31 06:29:17;;;;;;;7.17;6.12;;;9.40;99.90;;;;;;2059012;68;22123;-93
2022/12/31 06:32:09;;;;;;;7.50;6.05;;;9.30;99.90;;;;;;2017593;70;21121;-92
2022/12/31 06:35:01;;;;;;;7.92;6.25;;;9.30;99.90;;;;;;2019521;70;21081;-92
2022/12/31 06:41:10;;;;;;;7.72;6.90;;;9.20;99.90;;;;;;2044920;69;27730;-94
2022/12/31 06:59:49;;;;;;;6.92;5.45;;;9.20;99.90;;;;;;1937217;72;22111;-79
2022/12/31 07:03:12;;;;;;;6.50;5.80;;;9.20;99.90;;;;;;1935790;73;21087;-77
2022/12/31 07:06:08;;;;;;;7.50;6.30;;;9.30;99.90;;;;;;1929407;73;21091;-77
2022/12/31 07:09:03;;;;;;;6.70;5.87;;;9.20;99.90;;;;;;1927877;73;21102;-77
2022/12/31 07:11:58;;;;;;;8.35;6.25;;;9.30;99.90;;;;;;1937919;73;21079;-77
2022/12/31 07:14:54;;;;;;;7.75;6.45;;;9.20;99.90;;;;;;1927766;73;21131;-79
2022/12/31 07:20:30;;;;;;;8.03;6.40;;;9.20;99.90;;;;;;1935613;72;22184;-79
2022/12/31 07:23:23;;;;;;;7.70;6.25;;;9.20;99.90;;;;;;1895238;74;21183;-78
2022/12/31 07:26:20;;;;;;;8.00;6.03;;;9.20;99.90;;;;;;1895144;75;21146;-78
2022/12/31 07:29:14;;;;;;;8.15;5.80;;;9.20;99.90;;;;;;1891482;75;21152;-78
2022/12/31 07:32:10;;;;;;;8.78;6.25;;;9.20;99.90;;;;;;1857814;76;21117;-77
2022/12/31 07:37:44;;;;;;;7.85;6.12;;;9.10;99.90;;;;;;1961660;72;22234;-77
2022/12/31 07:40:38;;;;;;;8.25;6.40;;;9.10;99.90;;;;;;1938325;73;21097;-78
2022/12/31 07:46:13;;;;;;;6.83;5.95;;;9.10;99.90;;;;;;1929807;72;22215;-77
2022/12/31 07:49:06;;;;;;;6.65;5.95;;;9.10;99.90;;;;;;1902841;73;21098;-78
2022/12/31 07:51:58;;;;;;;7.15;6.45;;;9.20;99.90;;;;;;1893373;73;21109;-77
2022/12/31 07:54:49;;;;;;;6.85;6.12;;;9.20;99.90;;;;;;1900835;75;21566;-77
2022/12/31 07:57:44;;;;;;;8.35;6.22;;;9.20;99.90;;;;;;1906529;73;21093;-77
2022/12/31 08:00:36;;;;;;;7.55;6.65;;;9.20;99.90;;;;;;1888025;73;21137;-77
2022/12/31 08:03:38;;;;;;;7.37;6.42;;;9.20;99.90;;;;;;1906753;74;21710;-77
2022/12/31 08:06:33;;;;;;;7.28;6.58;;;9.20;99.90;;;;;;1904449;73;21098;-77
2022/12/31 08:09:32;;;;;;;7.05;6.25;;;9.20;99.90;;;;;;1907604;75;21093;-77
2022/12/31 08:12:25;;;;;;;6.40;5.78;;;9.20;99.90;;;;;;1898639;75;21066;-78
2022/12/31 08:15:19;;;;;;;6.85;6.15;;;9.20;99.90;;;;;;1887404;73;21162;-78
2022/12/31 08:18:14;;;;;;;8.03;6.20;;;9.30;99.90;;;;;;1890015;73;21114;-77
2022/12/31 08:23:56;;;;;;;10.15;7.72;;;9.30;99.90;;;;;;1923897;72;28075;-79
2022/12/31 08:29:41;;;;;;;6.92;6.22;;;9.50;99.90;;;;;;1936138;72;22151;-77
2022/12/31 08:32:35;;;;;;;7.17;5.80;;;9.40;99.90;;;;;;1903203;75;21109;-78
2022/12/31 08:35:33;;;;;;;7.45;6.08;;;9.40;99.90;;;;;;1903877;75;21195;-77
2022/12/31 08:38:29;;;;;;;6.47;5.87;;;9.50;99.90;;;;;;1888090;75;21180;-77
2022/12/31 08:41:26;;;;;;;7.00;5.90;;;9.60;99.90;;;;;;1885438;75;21095;-77
2022/12/31 08:44:21;;;;;;;5.40;4.90;;;9.60;99.90;;;;;;1904708;75;21054;-78
2022/12/31 08:47:17;;;;;;;7.28;5.22;;;9.70;99.90;;;;;;1891285;75;21747;-75
2022/12/31 08:50:15;;;;;;;5.97;4.97;;;9.70;99.90;;;;;;1898409;75;21161;-75
2022/12/31 08:55:49;;;;;;;5.90;4.72;;;9.90;99.90;;;;;;1946932;72;22665;-77
2022/12/31 08:58:45;;;;;;;5.30;4.80;;;9.90;99.90;;;;;;1919245;73;21597;-77
2022/12/31 09:01:40;;;;;;;5.50;4.95;;;9.90;99.90;;;;;;1916790;75;21095;-75
2022/12/31 09:04:35;;;;;;;6.55;5.95;;;9.90;99.90;;;;;;1920646;73;21118;-75
2022/12/31 09:10:21;;;;;;;7.03;5.60;;;10.00;99.90;;;;;;1926589;72;22135;-77
2022/12/31 09:13:17;;;;;;;6.40;5.33;;;10.00;99.90;;;;;;1899898;75;21215;-76
2022/12/31 09:16:14;;;;;;;5.50;4.97;;;10.00;99.90;;;;;;1886751;75;21158;-76
2022/12/31 09:21:55;;;;;;;4.90;4.40;;;10.20;99.90;;;;;;1957553;72;22194;-77
2022/12/31 09:24:47;;;;;;;5.78;4.45;;;10.30;99.90;;;;;;1933755;73;21094;-77
2022/12/31 09:27:42;;;;;;;4.92;4.42;;;10.30;99.90;;;;;;1939263;73;21629;-77
2022/12/31 09:30:36;;;;;;;5.80;4.60;;;10.40;99.90;;;;;;1916758;73;21181;-77
2022/12/31 09:36:11;;;;;;;5.05;3.47;;;10.60;99.90;;;;;;1937960;72;22280;-77
2022/12/31 09:39:05;;;;;;;4.70;3.42;;;10.70;99.90;;;;;;1908661;75;21155;-77
2022/12/31 09:42:22;;;;;;;3.90;3.50;;;10.80;99.90;;;;;;1892003;75;21078;-76
2022/12/31 09:45:30;;;;;;;5.45;3.25;;;10.90;99.90;;;;;;1914690;75;21160;-77
2022/12/31 09:48:44;;;;;;;;;;;10.90;99.90;;;;;;1911311;75;21097;-77
2022/12/31 09:54:52;;;;;;;4.17;3.77;;;11.10;99.90;;;;;;1963216;72;22292;-78
2022/12/31 09:57:46;;;;;;;5.72;3.72;;;11.20;99.90;;;;;;1918986;73;21195;-76
2022/12/31 10:00:40;;;;;;;4.22;3.83;;;11.30;99.90;;;;;;1916896;73;21171;-76
2022/12/31 10:06:24;;;;;;;6.30;4.37;;;11.50;99.90;;;;;;1934555;72;22123;-77
2022/12/31 10:09:30;;;;;;;6.92;5.97;;;11.50;99.90;;;;;;1897994;75;21094;-76
2022/12/31 10:12:37;;;;;;;6.12;4.20;;;11.60;99.90;;;;;;1893075;75;21109;-75
2022/12/31 10:21:44;;;;;;;5.60;4.03;;;11.70;99.90;;;;;;1948704;72;22257;-79
2022/12/31 10:27:51;;;;;;;4.90;3.80;;;11.70;99.90;;;;;;1952267;72;22194;-78
2022/12/31 10:30:46;;;;;;;4.22;3.83;;;11.90;99.90;;;;;;1913587;74;21498;-79
2022/12/31 10:33:43;;;;;;;4.40;3.50;;;12.00;99.90;;;;;;1906210;75;21290;-78
2022/12/31 10:39:23;;;;;;;4.28;3.80;;;12.10;99.90;;;;;;1932356;72;28236;-79
2022/12/31 10:42:38;;;;;;;3.90;3.40;;;12.20;99.90;;;;;;1894592;75;21156;-76
2022/12/31 10:46:11;;;;;;;4.97;3.20;;;12.20;99.90;;;;;;1890609;75;21102;-78
2022/12/31 10:49:41;;;;;;;4.33;3.62;;;12.30;99.90;;;;;;1910841;75;21180;-78
2022/12/31 10:53:30;;;;;;;4.62;3.30;;;12.30;99.90;;;;;;1896255;75;21549;-77
2022/12/31 10:59:53;;;;;;;3.92;3.10;;;12.50;99.90;;;;;;1953870;72;22225;-76
2022/12/31 11:06:16;;;;;;;3.65;3.33;;;12.70;99.90;;;;;;1945681;72;22305;-76
2022/12/31 11:09:56;;;;;;;3.62;3.20;;;12.80;99.90;;;;;;1926251;72;21131;-75
2022/12/31 11:13:19;;;;;;;3.98;3.22;;;12.80;99.90;;;;;;1928142;73;21626;-75
2022/12/31 11:16:40;;;;;;;5.15;3.35;;;12.90;99.90;;;;;;1940481;73;22061;-74
2022/12/31 11:19:35;;;;;;;4.40;3.42;;;13.00;99.90;;;;;;1942705;73;21171;-75
2022/12/31 11:22:47;;;;;;;4.65;3.40;;;12.90;99.90;;;;;;1942278;73;21047;-76
2022/12/31 11:25:46;;;;;;;4.87;3.90;;;13.00;99.90;;;;;;1920053;73;21168;-76
2022/12/31 11:32:02;;;;;;;4.42;3.52;;;13.00;99.90;;;;;;1939024;72;22221;-76
2022/12/31 11:35:14;;;;;;;4.55;3.58;;;13.00;99.90;;;;;;1902307;75;21170;-76
2022/12/31 11:40:55;;;;;;;3.55;3.12;;;12.90;99.90;;;;;;1916250;72;22250;-77
2022/12/31 11:43:50;;;;;;;4.55;3.33;;;13.00;99.90;;;;;;1902342;74;21142;-75
2022/12/31 11:46:51;;;;;;;5.08;3.15;;;13.10;99.90;;;;;;1884886;75;21102;-76
2022/12/31 11:49:56;;;;;;;4.60;3.50;;;13.20;99.90;;;;;;1908726;75;21607;-75
2022/12/31 11:58:35;;;;;;;4.67;3.55;;;13.30;99.90;;;;;;1934569;72;22268;-74
2022/12/31 12:01:29;;;;;;;4.00;3.52;;;13.40;99.90;;;;;;1905499;75;21219;-74
2022/12/31 12:07:00;;;;;;;4.85;3.72;;;13.40;99.90;;;;;;1951731;72;22771;-75
2022/12/31 12:09:52;;;;;;;4.95;3.70;;;13.50;99.90;;;;;;1944474;73;21192;-74
2022/12/31 12:12:44;;;;;;;4.28;3.33;;;13.40;99.90;;;;;;1919067;73;21683;-74
2022/12/31 12:18:28;;;;;;;3.35;2.95;;;13.60;99.90;;;;;;1937484;72;22698;-75
2022/12/31 12:21:22;;;;;;;5.95;3.10;;;13.60;99.90;;;;;;1900976;75;21119;-75
2022/12/31 12:24:20;;;;;;;4.20;2.87;;;13.80;99.90;;;;;;1888049;75;21470;-75
2022/12/31 12:30:11;;;;;;;5.05;3.30;;;13.80;99.90;;;;;;1942103;72;22196;-74
2022/12/31 12:33:03;;;;;;;3.35;3.00;;;13.90;99.90;;;;;;1899560;75;21087;-73
2022/12/31 12:35:56;;;;;;;3.02;2.52;;;14.00;99.90;;;;;;1893952;75;21576;-74
2022/12/31 12:38:47;;;;;;;4.12;2.90;;;14.10;99.90;;;;;;1895600;75;21105;-73
2022/12/31 12:41:38;;;;;;;5.35;2.98;;;14.20;99.90;;;;;;1889557;75;21248;-73
2022/12/31 12:44:29;;;;;;;5.30;2.55;;;14.20;99.90;;;;;;1887632;75;21121;-73
2022/12/31 12:47:21;;;;;;;4.50;2.87;;;14.30;99.90;;;;;;1896751;75;21108;-74
2022/12/31 12:50:16;;;;;;;3.83;3.10;;;14.40;99.90;;;;;;1903727;75;21143;-73
2022/12/31 12:55:53;;;;;;;4.28;2.37;;;14.50;99.90;;;;;;1924979;72;22113;-74
2022/12/31 13:01:31;;;;;;;3.75;2.30;;;14.70;99.90;;;;;;1946753;72;22201;-75
2022/12/31 13:04:31;;;;;;;3.00;2.37;;;14.80;99.90;;;;;;1893566;75;21101;-73
2022/12/31 13:07:31;;;;;;;2.45;2.00;;;14.70;99.90;;;;;;1905414;75;21101;-73
2022/12/31 13:10:28;;;;;;;;;;;14.80;99.90;;;;;;1916889;75;21129;-73
2022/12/31 13:16:02;;;;;;;2.55;2.12;;;14.90;99.90;;;;;;1928371;72;22231;-74
2022/12/31 13:21:45;;;;;;;3.65;2.05;;;15.10;99.90;;;;;;1937342;72;22125;-74
2022/12/31 13:24:45;;;;;;;4.40;1.87;;;15.20;99.90;;;;;;1903980;75;21165;-73
2022/12/31 13:27:39;;;;;;;4.25;1.62;;;15.30;99.90;;;;;;1879479;75;21166;-73
2022/12/31 13:30:33;;;;;;;3.02;1.62;;;15.30;99.90;;;;;;1881114;75;21156;-73
2022/12/31 13:33:27;;;;;;;2.55;1.57;;;15.40;99.90;;;;;;1894311;75;21176;-72
2022/12/31 13:36:22;;;;;;;4.05;1.77;;;15.40;99.90;;;;;;1883926;75;21171;-73
2022/12/31 13:39:17;;;;;;;4.22;1.57;;;15.40;99.90;;;;;;1892417;75;21098;-73
2022/12/31 13:42:12;;;;;;;3.20;1.77;;;15.40;99.90;;;;;;1888736;75;21139;-74
2022/12/31 13:48:01;;;;;;;2.52;1.70;;;15.60;99.90;;;;;;1936193;72;22245;-72
2022/12/31 13:50:55;;;;;;;2.58;1.80;;;15.60;99.90;;;;;;1884127;76;21090;-74
2022/12/31 13:53:50;;;;;;;3.62;1.80;;;15.60;99.90;;;;;;1890211;75;21102;-72
2022/12/31 13:56:44;;;;;;;5.05;2.27;;;15.50;99.90;;;;;;1909782;75;21205;-73
2022/12/31 13:59:38;;;;;;;4.42;1.77;;;15.50;99.90;;;;;;1884669;75;21189;-72
2022/12/31 14:02:34;;;;;;;3.90;1.90;;;15.40;99.90;;;;;;1903871;75;21099;-72
2022/12/31 14:08:08;;;;;;;3.05;1.40;;;15.40;99.90;;;;;;1935223;72;22244;-74
2022/12/31 14:11:05;;;;;;;4.20;1.77;;;15.40;99.90;;;;;;1909393;75;21130;-73
2022/12/31 14:16:46;;;;;;;3.87;1.62;;;15.40;99.90;;;;;;1933994;72;22179;-73
2022/12/31 14:19:45;;;;;;;3.37;1.60;;;15.50;99.90;;;;;;1908864;75;21099;-72
2022/12/31 14:22:39;;;;;;;3.35;2.20;;;15.40;99.90;;;;;;1883190;75;21177;-72
2022/12/31 14:30:56;;;;;;;4.10;1.45;;;15.40;99.90;;;;;;1927263;72;22233;-74
2022/12/31 14:36:38;;;;;;;3.90;2.15;;;15.30;99.90;;;;;;1929942;72;22304;-73
2022/12/31 14:39:39;;;;;;;5.53;2.47;;;15.20;99.90;;;;;;1905358;75;21249;-72
2022/12/31 14:42:34;;;;;;;3.27;1.87;;;15.30;99.90;;;;;;1900316;75;21188;-72
2022/12/31 14:45:33;;;;;;;4.03;1.82;;;15.20;99.90;;;;;;1905793;75;21106;-71
2022/12/31 14:48:31;;;;;;;3.55;1.62;;;15.20;99.90;;;;;;1884709;75;21102;-72
2022/12/31 14:54:02;;;;;;;3.15;1.75;;;15.00;99.90;;;;;;1940742;72;22177;-73
2022/12/31 14:56:53;;;;;;;3.67;2.00;;;15.00;99.90;;;;;;1903952;75;21203;-72
2022/12/31 14:59:56;;;;;;;5.60;2.12;;;15.00;99.90;;;;;;1902951;75;21542;-73
2022/12/31 15:02:51;;;;;;;3.70;1.70;;;14.90;99.90;;;;;;1900018;75;21148;-72
2022/12/31 15:05:51;;;;;;;2.42;1.60;;;14.80;99.90;;;;;;1903272;75;21104;-72
2022/12/31 15:08:49;;;;;;;4.37;1.95;;;14.70;99.90;;;;;;1904248;74;21541;-72
2022/12/31 15:11:50;;;;;;;4.30;1.67;;;14.70;99.90;;;;;;1887984;75;21114;-72
2022/12/31 15:15:21;;;;;;;4.08;1.95;;;14.60;99.90;;;;;;1886737;75;21164;-72
2022/12/31 15:18:24;;;;;;;3.50;2.20;;;14.50;99.90;;;;;;1888559;75;21602;-72
2022/12/31 15:21:48;;;;;;;3.37;1.90;;;14.50;99.90;;;;;;1885075;75;21563;-72
2022/12/31 15:24:44;;;;;;;5.62;1.98;;;14.50;99.90;;;;;;1903713;75;21579;-72
2022/12/31 15:27:41;;;;;;;3.27;1.72;;;14.50;99.90;;;;;;1905412;75;21153;-72
2022/12/31 15:35:58;;;;;;;4.33;2.08;;;14.30;99.90;;;;;;1934554;72;22190;-73
2022/12/31 15:41:30;;;;;;;5.22;2.20;;;14.30;99.90;;;;;;1943064;72;22196;-72
2022/12/31 15:44:25;;;;;;;3.37;2.00;;;14.20;99.90;;;;;;1927715;73;21489;-73
2022/12/31 15:47:20;;;;;;;3.45;2.20;;;14.10;99.90;;;;;;1916976;75;21107;-72
2022/12/31 15:50:16;;;;;;;3.92;2.35;;;14.10;99.90;;;;;;1932260;73;21134;-73
2022/12/31 15:55:53;;;;;;;3.83;2.08;;;14.00;99.90;;;;;;1930342;72;22694;-74
2022/12/31 15:58:46;;;;;;;3.27;1.98;;;14.00;99.90;;;;;;1902863;75;21098;-73
2022/12/31 16:01:39;;;;;;;4.10;2.50;;;13.90;99.90;;;;;;1910943;74;21097;-77
2022/12/31 16:04:32;;;;;;;6.65;2.45;;;13.90;99.90;;;;;;1888141;75;21212;-75
2022/12/31 16:10:08;;;;;;;4.00;2.33;;;13.70;99.90;;;;;;1931456;72;22242;-73
2022/12/31 16:15:38;;;;;;;4.90;2.72;;;13.70;99.90;;;;;;1945509;72;22748;-76
2022/12/31 16:18:38;;;;;;;5.05;2.62;;;13.60;99.90;;;;;;1896605;75;21189;-73
2022/12/31 16:21:35;;;;;;;4.37;2.22;;;13.60;99.90;;;;;;1886644;75;21255;-74
2022/12/31 16:24:31;;;;;;;4.78;2.50;;;13.50;99.90;;;;;;1900816;75;21568;-73
2022/12/31 16:27:24;;;;;;;3.80;2.40;;;13.40;99.90;;;;;;1910804;75;21122;-74
2022/12/31 16:35:39;;;;;;;5.08;3.12;;;13.60;99.90;;;;;;1934390;72;22154;-76
2022/12/31 16:41:19;;;;;;;4.50;3.02;;;13.50;99.90;;;;;;1925133;72;22157;-75
2022/12/31 16:46:49;;;;;;;4.00;2.72;;;13.30;99.90;;;;;;1936369;72;22440;-75
2022/12/31 16:49:41;;;;;;;5.95;2.75;;;13.30;99.90;;;;;;1894220;75;21110;-75
2022/12/31 16:52:37;;;;;;;4.25;2.42;;;13.40;99.90;;;;;;1907534;75;21048;-75
2022/12/31 16:55:31;;;;;;;5.10;2.65;;;13.30;99.90;;;;;;1890269;75;21039;-75
2022/12/31 16:58:25;;;;;;;3.95;2.40;;;13.30;99.90;;;;;;1906120;75;21078;-75
2022/12/31 17:06:39;;;;;;;5.25;2.67;;;13.10;99.90;;;;;;1970600;72;22115;-73
2022/12/31 17:12:16;;;;;;;7.20;3.55;;;13.10;99.90;;;;;;1944845;72;22288;-76
2022/12/31 17:15:17;;;;;;;5.00;2.55;;;13.20;99.90;;;;;;1917145;73;21163;-75
2022/12/31 17:20:48;;;;;;;7.85;3.50;;;13.20;99.90;;;;;;1923243;72;22315;-75
2022/12/31 17:23:41;;;;;;;4.37;2.47;;;13.20;99.90;;;;;;1886116;73;21521;-74
2022/12/31 17:26:35;;;;;;;3.67;2.50;;;13.30;99.90;;;;;;1893943;75;21569;-74
2022/12/31 17:29:26;;;;;;;4.50;2.62;;;13.30;99.90;;;;;;1917977;73;21148;-74
2022/12/31 17:32:30;;;;;;;7.65;2.55;;;13.40;99.90;;;;;;1909411;75;21129;-74
2022/12/31 17:35:30;;;;;;;7.03;3.10;;;13.20;99.90;;;;;;1899801;73;21091;-74
2022/12/31 17:41:23;;;;;;;3.60;2.40;;;13.20;99.90;;;;;;1961029;72;22146;-76
2022/12/31 17:44:19;;;;;;;4.53;2.98;;;13.30;99.90;;;;;;1905841;74;21066;-74
2022/12/31 17:47:13;;;;;;;4.95;2.72;;;13.30;99.90;;;;;;1929455;74;21102;-74
2022/12/31 17:50:20;;;;;;;5.80;2.60;;;13.40;99.90;;;;;;1913397;74;21071;-74
2022/12/31 17:55:57;;;;;;;4.72;2.92;;;13.40;99.90;;;;;;1939766;72;22197;-76
2022/12/31 17:58:50;;;;;;;4.72;3.30;;;13.40;99.90;;;;;;1911328;74;21167;-74
2022/12/31 18:01:41;;;;;;;3.98;2.83;;;13.40;99.90;;;;;;1911538;74;21102;-74
2022/12/31 18:04:32;;;;;;;5.10;2.95;;;13.30;99.90;;;;;;1890474;75;21119;-74
2022/12/31 18:07:24;;;;;;;4.95;2.95;;;13.30;99.90;;;;;;1915838;75;21155;-74
2022/12/31 18:16:14;;;;;;;7.53;3.95;;;13.30;99.90;;;;;;2042418;69;22143;-94
2022/12/31 18:22:04;;;;;;;5.65;3.35;;;13.20;99.90;;;;;;1965070;72;22141;-93
2022/12/31 18:57:19;;;;;;;5.40;3.20;;;13.20;99.90;;;;;;1946403;72;22187;-94
2022/12/31 19:00:15;;;;;;;5.42;3.42;;;13.10;99.90;;;;;;1917607;75;21209;-93
2022/12/31 19:03:09;;;;;;;3.67;2.05;;;13.30;99.90;;;;;;1917090;75;21091;-91
2022/12/31 19:06:01;;;;;;;6.58;2.95;;;13.40;99.90;;;;;;1917959;73;21167;-92
2022/12/31 19:30:40;;;;;;;3.58;2.95;;;13.40;99.90;;;;;;2101392;68;22008;-93
2022/12/31 19:33:32;;;;;;;4.67;2.60;;;13.50;99.90;;;;;;2057969;69;21187;-92
2022/12/31 19:36:24;;;;;;;5.62;3.58;;;13.50;99.90;;;;;;2035089;70;21107;-92
2022/12/31 19:39:19;;;;;;;4.75;3.10;;;13.50;99.90;;;;;;2039784;69;21199;-92
2022/12/31 19:42:15;;;;;;;4.33;2.20;;;13.50;99.90;;;;;;2041963;69;21035;-92
2022/12/31 19:45:10;;;;;;;3.70;2.50;;;13.60;99.90;;;;;;2032962;69;21089;-92
